Time;durP1;ratioP1;P1;durP2;ratioP2;P2;SDS_P1;SDS_P2;PMS_P1;PMS_P2;Temp;Humidity;BMP_temperature;BMP_pressure;BME280_temperature;BME280_humidity;BME280_pressure;Samples;Min_cycle;Max_cycle;Signal;HPM_P1;HPM_P2
2023/10/06 00:01:42;;;;;;;3.67;2.00;;;;;;;23.24;46.88;102301.22;5054920;28;20152;-68
2023/10/06 00:04:12;;;;;;;2.35;1.90;;;;;;;23.21;46.91;102294.41;5031385;28;20459;-68
2023/10/06 00:06:41;;;;;;;2.63;2.17;;;;;;;23.24;46.97;102298.56;5052444;28;20044;-68
2023/10/06 00:09:12;;;;;;;3.08;2.75;;;;;;;23.26;46.79;102305.38;5004827;28;20997;-67
2023/10/06 00:11:38;;;;;;;4.47;2.00;;;;;;;23.24;47.20;102301.22;5064065;28;20041;-67
2023/10/06 00:14:18;;;;;;;3.95;2.50;;;;;;;23.24;46.93;102296.72;5039615;28;20057;-68
2023/10/06 00:16:50;;;;;;;3.72;1.90;;;;;;;23.09;46.88;102272.66;5039888;28;20044;-69
2023/10/06 00:19:32;;;;;;;3.60;2.17;;;;;;;23.25;46.91;102292.25;5052779;28;20307;-66
2023/10/06 00:24:31;;;;;;;2.78;2.17;;;;;;;23.20;47.10;102288.25;5029201;28;20119;-66
2023/10/06 00:27:10;;;;;;;2.58;2.13;;;;;;;23.23;46.90;102292.41;5054888;28;20040;-66
2023/10/06 00:29:43;;;;;;;;;;;;;;;23.24;47.06;102290.59;5016668;28;20410;-67
2023/10/06 00:32:23;;;;;;;2.97;1.98;;;;;;;23.23;47.13;102280.94;5002569;28;19912;-67
2023/10/06 00:34:50;;;;;;;2.55;2.13;;;;;;;23.22;47.07;102290.75;5057694;28;20056;-66
2023/10/06 00:37:16;;;;;;;2.60;2.38;;;;;;;23.21;46.84;102287.25;4993452;28;21635;-66
2023/10/06 00:39:43;;;;;;;3.50;2.13;;;;;;;23.21;47.21;102292.59;5040834;28;20189;-66
2023/10/06 00:42:13;;;;;;;3.13;1.88;;;;;;;23.19;46.92;102289.25;5053401;28;20060;-66
2023/10/06 00:44:39;;;;;;;;;;;;;;;23.23;47.01;102289.75;5007299;28;20458;-66
2023/10/06 00:47:06;;;;;;;2.38;2.17;;;;;;;23.16;46.93;102278.13;5051110;28;19967;-66
2023/10/06 00:49:35;;;;;;;2.33;2.13;;;;;;;23.21;47.10;102279.28;4974820;28;20444;-67
2023/10/06 00:52:00;;;;;;;2.60;2.07;;;;;;;23.22;47.01;102280.13;5038532;28;20499;-65
2023/10/06 00:54:26;;;;;;;3.45;2.67;;;;;;;23.21;46.87;102279.28;4993222;28;20874;-67
2023/10/06 00:56:57;;;;;;;2.42;1.95;;;;;;;23.20;46.82;102282.94;5026562;28;20882;-67
2023/10/06 00:59:24;;;;;;;2.33;2.10;;;;;;;23.20;47.02;102277.63;5023713;28;20113;-67
2023/10/06 01:01:50;;;;;;;2.53;2.10;;;;;;;23.20;46.82;102266.19;5036946;28;20645;-67
2023/10/06 01:04:16;;;;;;;3.25;2.35;;;;;;;23.21;46.76;102260.69;4988801;28;20630;-68
2023/10/06 01:06:42;;;;;;;4.10;2.35;;;;;;;23.16;47.08;102255.06;5015310;28;20053;-68
2023/10/06 01:11:49;;;;;;;3.08;2.28;;;;;;;23.20;46.72;102252.88;5027416;28;20143;-71
2023/10/06 01:14:21;;;;;;;3.22;2.28;;;;;;;23.19;47.01;102236.13;4984147;28;20041;-69
2023/10/06 01:16:49;;;;;;;3.65;2.38;;;;;;;23.20;47.00;102226.31;5044377;28;20110;-68
2023/10/06 01:19:33;;;;;;;3.22;2.28;;;;;;;23.12;46.80;102205.06;4985545;28;20080;-68
2023/10/06 01:22:06;;;;;;;3.03;2.22;;;;;;;23.19;46.94;102220.16;5042691;28;20088;-69
2023/10/06 01:24:32;;;;;;;2.55;2.35;;;;;;;23.20;46.65;102221.00;4991818;28;20048;-68
2023/10/06 01:27:07;;;;;;;2.40;2.10;;;;;;;23.20;46.74;102215.69;5042568;28;20056;-69
2023/10/06 01:29:34;;;;;;;2.70;1.92;;;;;;;23.18;46.75;102213.19;4993845;28;20059;-68
2023/10/06 01:32:04;;;;;;;2.78;2.22;;;;;;;23.18;46.88;102215.03;5042445;28;20049;-68
2023/10/06 01:34:35;;;;;;;2.88;1.98;;;;;;;23.19;47.08;102222.00;4996289;28;20068;-67
2023/10/06 01:37:03;;;;;;;3.25;2.40;;;;;;;23.19;46.94;102219.34;5039089;28;20044;-66
2023/10/06 01:39:32;;;;;;;2.70;2.28;;;;;;;23.11;46.78;102212.19;4980309;28;20403;-66
2023/10/06 01:42:04;;;;;;;4.70;2.85;;;;;;;23.16;46.85;102219.66;5029999;28;20048;-67
2023/10/06 01:44:30;;;;;;;2.88;2.40;;;;;;;23.19;46.74;102229.97;4988145;28;20596;-67
2023/10/06 01:46:56;;;;;;;4.05;2.42;;;;;;;23.16;47.07;102223.16;5045371;28;20530;-67
2023/10/06 01:49:22;;;;;;;2.60;2.38;;;;;;;23.17;47.06;102216.84;4978925;28;20754;-68
2023/10/06 01:51:52;;;;;;;2.50;2.28;;;;;;;23.14;46.75;102211.84;5018827;28;20044;-68
2023/10/06 01:54:19;;;;;;;3.15;2.47;;;;;;;23.14;46.79;102205.72;4981915;28;20458;-68
2023/10/06 01:56:47;;;;;;;2.20;2.00;;;;;;;23.16;46.87;102207.22;5042773;28;20095;-68
2023/10/06 01:59:16;;;;;;;3.20;2.92;;;;;;;23.17;46.80;102216.03;4972101;28;21152;-66
2023/10/06 02:01:43;;;;;;;3.10;2.30;;;;;;;23.13;46.74;102198.75;5030477;28;20118;-66
2023/10/06 02:04:18;;;;;;;2.72;2.35;;;;;;;23.13;47.02;102204.06;5026523;28;20406;-66
2023/10/06 02:06:45;;;;;;;4.32;2.38;;;;;;;23.14;46.92;102197.75;5035500;28;20053;-66
2023/10/06 02:09:15;;;;;;;2.20;2.00;;;;;;;23.16;46.82;102196.59;4987658;28;20045;-66
2023/10/06 02:11:49;;;;;;;;;;;;;;;23.16;46.93;102187.75;5024430;28;20115;-66
2023/10/06 02:14:18;;;;;;;2.45;2.00;;;;;;;23.16;46.67;102174.47;5012900;28;19929;-69
2023/10/06 02:16:44;;;;;;;2.58;2.30;;;;;;;23.17;46.67;102176.16;5038718;28;20077;-69
2023/10/06 02:19:16;;;;;;;5.15;3.13;;;;;;;23.13;46.69;102180.97;4993498;28;20132;-68
2023/10/06 02:21:51;;;;;;;2.55;2.35;;;;;;;23.12;47.05;102174.00;5027511;28;20065;-67
2023/10/06 02:24:17;;;;;;;3.20;2.17;;;;;;;23.13;46.83;102173.00;4997707;28;20143;-67
2023/10/06 02:26:57;;;;;;;4.22;2.45;;;;;;;23.11;46.83;102176.81;5044267;28;20052;-68
2023/10/06 02:29:23;;;;;;;4.45;2.20;;;;;;;23.17;46.79;102181.47;5029707;28;20049;-68
2023/10/06 02:31:50;;;;;;;3.95;2.33;;;;;;;23.16;46.67;102187.75;5048124;28;20051;-68
2023/10/06 02:34:29;;;;;;;2.47;2.20;;;;;;;23.16;46.61;102187.75;4973920;28;20599;-68
2023/10/06 02:36:55;;;;;;;3.92;2.35;;;;;;;23.10;46.83;102170.69;5042420;28;22013;-68
2023/10/06 02:39:21;;;;;;;3.15;2.50;;;;;;;23.07;46.78;102164.88;4979276;28;20049;-69
2023/10/06 02:41:47;;;;;;;2.75;2.35;;;;;;;23.09;46.70;102165.53;5045083;28;20060;-69
2023/10/06 02:44:22;;;;;;;3.05;2.17;;;;;;;23.13;46.70;102165.03;5000401;28;20044;-68
2023/10/06 02:46:51;;;;;;;2.90;2.10;;;;;;;23.10;46.59;102156.56;5037561;28;20106;-68
2023/10/06 02:49:24;;;;;;;4.13;2.25;;;;;;;23.13;46.84;102148.25;4992234;28;20124;-67
2023/10/06 02:51:51;;;;;;;2.67;2.40;;;;;;;23.13;46.61;102159.72;5023328;28;20119;-67
2023/10/06 02:56:43;;;;;;;6.10;2.88;;;;;;;23.12;46.63;102159.88;4996157;28;20057;-67
2023/10/06 02:59:34;;;;;;;2.65;1.80;;;;;;;23.11;46.55;102153.75;5025435;28;20108;-67
2023/10/06 03:01:57;;;;;;;2.45;2.20;;;;;;;23.13;46.55;102154.41;4994045;28;20503;-67
2023/10/06 03:04:27;;;;;;;2.33;1.98;;;;;;;23.13;46.62;102150.91;5041058;28;20049;-68
2023/10/06 03:06:56;;;;;;;3.88;2.33;;;;;;;23.12;46.58;102141.28;4973591;28;20053;-67
2023/10/06 03:09:38;;;;;;;4.40;2.00;;;;;;;23.12;46.77;102143.94;5045627;28;20627;-67
2023/10/06 03:12:14;;;;;;;3.65;2.40;;;;;;;23.11;46.74;102148.44;5008701;28;20056;-67
2023/10/06 03:14:40;;;;;;;3.50;2.22;;;;;;;23.08;46.70;102138.13;5038865;28;20049;-67
2023/10/06 03:17:12;;;;;;;3.80;2.15;;;;;;;23.12;46.50;102136.78;4975987;28;20062;-66
2023/10/06 03:19:43;;;;;;;3.25;2.40;;;;;;;23.11;46.42;102134.31;5019127;28;20140;-66
2023/10/06 03:22:12;;;;;;;2.80;2.33;;;;;;;23.11;46.80;102132.47;4976179;28;20053;-66
2023/10/06 03:24:58;;;;;;;2.17;2.00;;;;;;;23.11;46.64;102123.69;5020391;28;20053;-68
2023/10/06 03:27:29;;;;;;;4.80;2.53;;;;;;;23.10;46.82;102122.03;5007059;28;20055;-67
2023/10/06 03:30:10;;;;;;;3.08;2.35;;;;;;;23.07;46.66;102111.75;5019100;28;20041;-67
2023/10/06 03:32:39;;;;;;;4.90;2.78;;;;;;;23.12;46.60;102126.16;5027012;28;20072;-67
2023/10/06 03:35:36;;;;;;;4.85;3.67;;;;;;;23.11;46.61;102121.03;5009049;28;20459;-68
2023/10/06 03:38:27;;;;;;;2.58;2.28;;;;;;;23.05;46.75;102109.25;5023022;28;20049;-68
2023/10/06 03:46:03;;;;;;;4.20;2.10;;;;;;;23.08;46.71;102111.56;5002943;28;20132;-68
2023/10/06 03:48:29;;;;;;;2.53;2.33;;;;;;;22.99;46.65;102098.50;5053348;28;20141;-69
2023/10/06 03:50:56;;;;;;;3.63;2.40;;;;;;;23.04;46.69;102098.81;4980841;28;20036;-69
2023/10/06 03:53:28;;;;;;;3.47;2.50;;;;;;;23.09;46.57;102104.44;5034658;28;20068;-69
2023/10/06 03:55:54;;;;;;;3.38;2.47;;;;;;;23.08;46.79;102110.75;4972166;28;20756;-67
2023/10/06 03:58:19;;;;;;;3.50;2.20;;;;;;;23.10;46.66;102108.75;5027185;28;20049;-67
2023/10/06 04:00:48;;;;;;;2.97;2.25;;;;;;;23.10;46.56;102108.75;5036761;28;20049;-67
2023/10/06 04:03:17;;;;;;;2.42;2.13;;;;;;;23.07;46.60;102109.09;4984848;28;20053;-68
2023/10/06 04:05:49;;;;;;;2.95;2.50;;;;;;;23.07;46.84;102112.56;5041045;28;20049;-69
2023/10/06 04:08:17;;;;;;;2.92;2.28;;;;;;;23.08;46.83;102110.75;4995564;28;20067;-68
2023/10/06 04:10:44;;;;;;;3.33;2.05;;;;;;;23.05;46.50;102111.09;5039036;28;20514;-68
2023/10/06 04:13:10;;;;;;;4.03;2.17;;;;;;;23.07;46.63;102101.94;4998552;28;20049;-68
2023/10/06 04:15:39;;;;;;;3.72;2.10;;;;;;;23.06;46.65;102107.44;5035928;28;20388;-67
2023/10/06 04:18:09;;;;;;;;;;;;;;;23.06;46.58;102110.91;4996133;28;20044;-68
2023/10/06 04:20:36;;;;;;;3.33;2.15;;;;;;;23.06;46.71;102102.94;5042460;28;19970;-69
2023/10/06 04:23:02;;;;;;;2.67;2.05;;;;;;;23.06;46.92;102102.94;5029849;28;20049;-67
2023/10/06 04:25:28;;;;;;;2.30;2.10;;;;;;;23.06;46.65;102100.28;5039707;28;20037;-67
2023/10/06 04:27:54;;;;;;;3.15;2.20;;;;;;;23.05;46.75;102093.31;4992604;28;20060;-69
2023/10/06 04:30:19;;;;;;;3.35;2.30;;;;;;;23.07;46.72;102096.63;5049103;28;20538;-69
2023/10/06 04:32:45;;;;;;;3.20;1.98;;;;;;;23.07;46.71;102091.31;4992217;28;20641;-69
2023/10/06 04:35:19;;;;;;;4.05;2.38;;;;;;;22.95;46.55;102066.09;5043513;28;20053;-69
2023/10/06 04:37:47;;;;;;;2.47;2.13;;;;;;;23.05;46.69;102072.06;5001275;28;20059;-69
2023/10/06 04:40:20;;;;;;;3.00;2.25;;;;;;;23.04;46.65;102070.41;5032437;28;20623;-69
2023/10/06 04:42:46;;;;;;;3.80;2.45;;;;;;;23.06;46.67;102086.19;5049224;28;20495;-69
2023/10/06 04:45:14;;;;;;;3.83;2.45;;;;;;;23.02;46.83;102066.28;5010608;28;20060;-68
2023/10/06 04:47:43;;;;;;;5.20;2.92;;;;;;;23.05;46.60;102069.41;5039547;28;20055;-68
2023/10/06 04:50:09;;;;;;;3.08;2.72;;;;;;;23.02;46.77;102074.25;4983152;28;20511;-69
2023/10/06 04:52:44;;;;;;;2.25;1.88;;;;;;;23.05;46.57;102084.53;5041077;28;20056;-68
2023/10/06 04:55:18;;;;;;;3.78;2.47;;;;;;;23.05;46.52;102073.91;5001643;28;20044;-67
2023/10/06 04:57:43;;;;;;;4.32;2.58;;;;;;;23.05;46.61;102060.59;4975517;28;20591;-68
2023/10/06 05:00:19;;;;;;;2.40;2.10;;;;;;;23.05;46.73;102068.59;5046009;28;20037;-69
2023/10/06 05:02:47;;;;;;;3.03;2.00;;;;;;;23.03;46.59;102075.91;4996287;28;20049;-67
2023/10/06 05:05:20;;;;;;;3.88;2.45;;;;;;;23.03;46.41;102068.75;5045446;28;20056;-67
2023/10/06 05:07:51;;;;;;;3.90;2.10;;;;;;;23.03;46.78;102074.06;4995691;28;20036;-68
2023/10/06 05:10:21;;;;;;;3.25;2.03;;;;;;;23.03;46.83;102068.75;5041641;28;20045;-67
2023/10/06 05:12:47;;;;;;;3.17;2.13;;;;;;;23.04;46.76;102072.25;4982592;28;20118;-67
2023/10/06 05:15:31;;;;;;;2.22;2.10;;;;;;;23.04;46.60;102066.91;5015368;28;20041;-67
2023/10/06 05:17:58;;;;;;;4.25;2.40;;;;;;;23.03;46.49;102060.78;4990141;28;20106;-67
2023/10/06 05:20:30;;;;;;;2.30;2.00;;;;;;;23.00;46.48;102071.75;5041122;28;20045;-67
2023/10/06 05:23:02;;;;;;;3.35;2.42;;;;;;;22.99;46.81;102062.13;5023930;28;20044;-67
2023/10/06 05:25:29;;;;;;;2.70;2.22;;;;;;;23.02;46.73;102063.63;5040477;28;20045;-67
2023/10/06 05:27:59;;;;;;;3.17;2.20;;;;;;;23.04;46.71;102069.59;4990794;28;20105;-67
2023/10/06 05:30:26;;;;;;;3.25;2.10;;;;;;;23.03;46.26;102049.34;5040682;28;20044;-66
2023/10/06 05:32:51;;;;;;;3.20;2.15;;;;;;;23.03;46.47;102057.31;4991225;28;20410;-66
2023/10/06 05:35:20;;;;;;;3.60;2.25;;;;;;;23.02;46.44;102059.13;5033359;28;20119;-67
2023/10/06 05:37:46;;;;;;;4.32;2.38;;;;;;;22.99;46.45;102059.47;4991394;28;20122;-67
2023/10/06 05:40:16;;;;;;;3.30;2.42;;;;;;;23.00;46.49;102052.34;5032435;28;20053;-67
2023/10/06 05:42:42;;;;;;;3.25;2.30;;;;;;;23.01;46.65;102060.13;4992598;28;20587;-69
2023/10/06 05:45:20;;;;;;;3.53;2.30;;;;;;;22.98;46.70;102054.31;5017040;28;20977;-69
2023/10/06 05:47:48;;;;;;;4.22;2.50;;;;;;;23.00;46.53;102063.78;5048389;28;20067;-69
2023/10/06 05:50:27;;;;;;;4.20;2.50;;;;;;;22.93;46.46;102052.16;5003015;28;20685;-69
2023/10/06 05:53:04;;;;;;;3.60;2.77;;;;;;;23.02;46.52;102060.97;5062370;28;20521;-69
2023/10/06 05:55:31;;;;;;;4.45;3.08;;;;;;;23.02;46.54;102066.28;5009345;28;21365;-69
2023/10/06 05:58:00;;;;;;;5.63;2.22;;;;;;;23.02;46.66;102051.16;5062718;28;20045;-69
2023/10/06 06:00:29;;;;;;;5.07;2.33;;;;;;;23.01;46.59;102062.78;5006530;28;21076;-70
2023/10/06 06:02:59;;;;;;;4.45;2.20;;;;;;;23.02;46.50;102069.75;5053882;28;20629;-69
2023/10/06 06:05:33;;;;;;;2.63;1.85;;;;;;;23.02;46.46;102072.41;5034378;28;20056;-69
2023/10/06 06:08:00;;;;;;;3.42;2.15;;;;;;;22.98;46.46;102059.63;5052551;28;20633;-69
2023/10/06 06:10:29;;;;;;;3.75;2.40;;;;;;;22.99;46.42;102053.34;5007756;28;20059;-69
2023/10/06 06:13:00;;;;;;;2.67;2.15;;;;;;;22.99;46.60;102059.47;5036594;28;20052;-70
2023/10/06 06:15:26;;;;;;;3.70;2.85;;;;;;;23.01;46.42;102061.97;4988257;28;20056;-69
2023/10/06 06:17:58;;;;;;;3.22;2.20;;;;;;;22.98;46.57;102055.16;5057742;28;20052;-70
2023/10/06 06:20:24;;;;;;;2.83;2.30;;;;;;;23.01;46.40;102051.34;4999568;28;20045;-69
2023/10/06 06:22:53;;;;;;;3.40;2.28;;;;;;;22.93;46.55;102044.19;5055863;28;20996;-69
2023/10/06 06:25:29;;;;;;;4.43;2.40;;;;;;;22.97;46.48;102042.84;5005900;28;20123;-69
2023/10/06 06:27:59;;;;;;;3.65;2.00;;;;;;;23.01;46.39;102046.03;5043822;28;20056;-66
2023/10/06 06:30:25;;;;;;;3.85;2.00;;;;;;;23.01;46.55;102040.72;5057424;28;20163;-66
2023/10/06 06:32:52;;;;;;;3.20;2.38;;;;;;;22.95;46.52;102041.38;5051653;28;20065;-66
2023/10/06 06:35:19;;;;;;;2.85;2.08;;;;;;;23.00;46.68;102042.53;4994148;28;20403;-66
2023/10/06 06:37:56;;;;;;;4.57;2.30;;;;;;;23.01;46.55;102054.00;5048494;28;20056;-66
2023/10/06 06:40:31;;;;;;;2.38;2.17;;;;;;;23.01;46.56;102057.47;5003987;28;20045;-67
2023/10/06 06:43:14;;;;;;;2.60;2.10;;;;;;;22.96;46.76;102037.72;5049837;28;20048;-66
2023/10/06 06:45:40;;;;;;;2.97;2.13;;;;;;;22.99;46.20;102042.72;5038684;28;20048;-68
2023/10/06 06:48:13;;;;;;;3.38;2.20;;;;;;;22.98;46.83;102049.84;5025814;28;20118;-67
2023/10/06 06:50:43;;;;;;;4.90;2.42;;;;;;;22.80;46.63;102023.47;5040713;28;20372;-69
2023/10/06 06:53:09;;;;;;;4.35;2.53;;;;;;;22.99;46.63;102050.69;5052363;28;20102;-70
2023/10/06 06:55:36;;;;;;;2.83;2.47;;;;;;;23.01;46.54;102062.78;5005680;28;20125;-70
2023/10/06 06:58:06;;;;;;;4.50;2.70;;;;;;;23.01;46.42;102062.78;5059071;28;20052;-70
2023/10/06 07:00:35;;;;;;;;;;;;;;;23.01;46.50;102060.13;5009535;28;20041;-70
2023/10/06 07:03:01;;;;;;;3.72;2.50;;;;;;;22.98;46.53;102057.81;5054215;28;19920;-69
2023/10/06 07:05:26;;;;;;;4.05;2.95;;;;;;;23.00;46.66;102055.00;5005771;28;20048;-69
2023/10/06 07:07:52;;;;;;;5.72;3.42;;;;;;;23.01;46.79;102059.31;5053002;28;20078;-69
2023/10/06 07:10:20;;;;;;;2.70;2.28;;;;;;;22.96;46.61;102043.03;5009430;28;20051;-68
2023/10/06 07:12:47;;;;;;;5.78;2.42;;;;;;;23.01;46.79;102054.00;5056701;28;20573;-68
2023/10/06 07:15:20;;;;;;;6.00;2.58;;;;;;;23.01;46.46;102065.44;5039157;28;20114;-71
2023/10/06 07:17:45;;;;;;;2.33;2.13;;;;;;;23.01;46.43;102057.47;5060419;28;20499;-71
2023/10/06 07:20:23;;;;;;;4.10;2.58;;;;;;;23.00;46.40;102065.63;5006989;28;20048;-71
2023/10/06 07:22:53;;;;;;;4.75;2.45;;;;;;;23.02;46.30;102068.94;5058723;28;20052;-71
2023/10/06 07:25:19;;;;;;;4.13;2.50;;;;;;;22.92;46.44;102058.47;5010394;28;20056;-71
2023/10/06 07:27:48;;;;;;;7.13;2.50;;;;;;;22.93;46.44;102052.16;5058250;28;20624;-70
2023/10/06 07:30:14;;;;;;;3.53;2.20;;;;;;;23.02;46.70;102068.94;5006671;28;20429;-71
2023/10/06 07:32:44;;;;;;;5.07;3.00;;;;;;;23.01;46.75;102073.41;5054546;28;21242;-71
2023/10/06 07:35:15;;;;;;;2.40;2.20;;;;;;;23.02;46.60;102074.25;5006208;28;20052;-66
2023/10/06 07:37:44;;;;;;;3.75;2.45;;;;;;;22.99;46.62;102069.28;5037388;28;20068;-67
2023/10/06 07:40:14;;;;;;;2.35;1.90;;;;;;;22.96;46.71;102059.78;5038029;28;20048;-67
2023/10/06 07:42:48;;;;;;;4.28;2.17;;;;;;;23.02;46.40;102068.94;5005019;28;20141;-68
2023/10/06 07:45:15;;;;;;;7.35;2.53;;;;;;;22.98;46.45;102063.13;5061530;28;20052;-68
2023/10/06 07:47:44;;;;;;;5.78;2.40;;;;;;;23.02;46.57;102076.91;4987580;28;20106;-67
2023/10/06 07:50:14;;;;;;;5.82;2.22;;;;;;;23.03;46.47;102075.91;5056801;28;20049;-67
2023/10/06 07:52:43;;;;;;;3.38;2.53;;;;;;;23.03;46.46;102071.41;5006515;28;20059;-66
2023/10/06 07:55:10;;;;;;;3.13;2.20;;;;;;;23.03;46.63;102067.94;5057565;28;20052;-66
2023/10/06 07:57:45;;;;;;;2.88;2.45;;;;;;;23.02;46.63;102055.66;5041883;28;20171;-66
2023/10/06 08:00:30;;;;;;;5.00;2.70;;;;;;;23.03;46.56;102076.72;5050680;28;20147;-66
2023/10/06 08:03:00;;;;;;;5.28;2.30;;;;;;;23.01;46.51;102070.75;5012510;28;20514;-67
2023/10/06 08:05:26;;;;;;;;;;;;;;;23.03;46.78;102074.06;5055702;28;20856;-66
2023/10/06 08:07:52;;;;;;;3.58;2.25;;;;;;;23.00;46.44;102078.91;5000828;28;19924;-66
2023/10/06 08:10:19;;;;;;;4.05;2.35;;;;;;;23.03;46.48;102078.56;5056328;28;20526;-67
2023/10/06 08:12:51;;;;;;;3.63;2.45;;;;;;;23.05;46.59;102077.38;5009725;28;20506;-66
2023/10/06 08:15:17;;;;;;;3.83;2.30;;;;;;;23.03;46.51;102066.09;5058499;28;20051;-67
2023/10/06 08:17:45;;;;;;;3.08;2.25;;;;;;;23.01;46.63;102064.63;5004061;28;20048;-66
2023/10/06 08:20:12;;;;;;;3.92;2.50;;;;;;;23.03;46.61;102071.41;5052161;28;20529;-66
2023/10/06 08:22:41;;;;;;;4.95;2.35;;;;;;;23.03;46.47;102078.56;5039529;28;20530;-66
2023/10/06 08:25:09;;;;;;;2.72;2.22;;;;;;;23.02;46.50;102084.88;5056723;28;20083;-67
2023/10/06 08:27:39;;;;;;;5.15;2.47;;;;;;;22.98;46.52;102079.06;5009590;28;21227;-67
2023/10/06 08:30:09;;;;;;;4.85;2.40;;;;;;;22.96;46.74;102074.91;5055288;28;20072;-67
2023/10/06 08:32:35;;;;;;;3.15;2.65;;;;;;;22.94;46.91;102077.72;5013316;28;20060;-67
2023/10/06 08:35:00;;;;;;;5.93;2.67;;;;;;;22.96;46.60;102081.03;5054234;28;20056;-67
2023/10/06 08:37:26;;;;;;;4.90;3.20;;;;;;;22.95;46.55;102068.75;4999894;28;21690;-67
2023/10/06 08:39:52;;;;;;;3.15;2.10;;;;;;;22.96;46.52;102072.25;5060086;28;20560;-67
2023/10/06 08:42:19;;;;;;;5.15;2.35;;;;;;;22.96;46.60;102059.78;5047820;28;20044;-69
2023/10/06 08:44:45;;;;;;;3.70;2.58;;;;;;;22.94;46.83;102066.28;5054902;28;20040;-71
2023/10/06 08:47:16;;;;;;;4.35;2.53;;;;;;;22.91;46.69;102057.66;5023094;28;20628;-71
2023/10/06 08:49:43;;;;;;;4.57;2.38;;;;;;;22.97;46.89;102066.75;5059982;28;20040;-71
2023/10/06 08:52:13;;;;;;;4.03;2.83;;;;;;;22.98;46.78;102056.97;5014048;28;20600;-69
2023/10/06 08:54:42;;;;;;;4.93;3.10;;;;;;;22.98;46.48;102056.97;5041096;28;20491;-69
2023/10/06 08:57:15;;;;;;;4.83;2.40;;;;;;;22.98;46.57;102054.31;5029868;28;20498;-69
2023/10/06 08:59:41;;;;;;;4.75;2.58;;;;;;;22.96;46.66;102048.34;5041069;28;20447;-69
2023/10/06 09:02:10;;;;;;;4.65;2.85;;;;;;;22.99;46.42;102064.78;5021538;28;20052;-67
2023/10/06 09:04:37;;;;;;;3.30;2.57;;;;;;;23.01;46.51;102065.44;5051619;28;20040;-67
2023/10/06 09:07:11;;;;;;;3.67;3.30;;;;;;;23.01;46.69;102056.66;5048331;28;21059;-67
2023/10/06 09:09:43;;;;;;;5.63;2.95;;;;;;;22.96;46.66;102051.00;5040034;28;20041;-67
2023/10/06 09:12:26;;;;;;;5.70;3.30;;;;;;;23.03;46.36;102058.13;5020169;28;20068;-67
2023/10/06 09:14:56;;;;;;;4.53;2.83;;;;;;;23.02;46.67;102053.00;5060427;28;20040;-67
2023/10/06 09:17:33;;;;;;;4.38;3.72;;;;;;;23.01;46.72;102062.78;5012165;28;20416;-67
2023/10/06 09:19:59;;;;;;;5.22;2.92;;;;;;;23.01;46.51;102065.44;5052176;28;20548;-67
2023/10/06 09:22:29;;;;;;;4.65;3.63;;;;;;;23.01;46.59;102059.31;5006422;28;20607;-67
2023/10/06 09:25:04;;;;;;;2.90;2.60;;;;;;;23.03;46.46;102059.97;5052675;28;20102;-67
2023/10/06 09:27:31;;;;;;;94.45;78.22;;;;;;;23.02;46.49;102053.00;5006902;28;21130;-68
2023/10/06 09:29:59;;;;;;;128.85;95.60;;;;;;;23.02;46.65;102053.00;5044111;28;20052;-68
2023/10/06 09:32:25;;;;;;;136.23;98.78;;;;;;;23.00;46.42;102061.13;5055204;28;21799;-67
2023/10/06 09:34:53;;;;;;;113.05;89.13;;;;;;;23.03;46.49;102050.16;5002030;28;20053;-67
2023/10/06 09:37:22;;;;;;;93.63;80.25;;;;;;;23.02;46.71;102051.16;5058874;28;20083;-67
2023/10/06 09:40:10;;;;;;;82.75;73.45;;;;;;;23.01;46.98;102038.06;5008983;28;20041;-68
2023/10/06 09:42:36;;;;;;;75.50;67.80;;;;;;;23.04;46.71;102043.00;5036800;28;20489;-68
2023/10/06 09:45:07;;;;;;;72.50;65.13;;;;;;;23.03;46.70;102036.03;5006939;28;20045;-67
2023/10/06 09:47:41;;;;;;;67.93;61.28;;;;;;;23.03;46.56;102036.88;5051689;28;20847;-67
2023/10/06 09:50:08;;;;;;;64.25;58.03;;;;;;;22.99;46.79;102027.59;5006455;28;20040;-67
2023/10/06 09:52:42;;;;;;;62.17;56.38;;;;;;;23.06;46.88;102043.66;5045021;28;20403;-66
2023/10/06 09:55:08;;;;;;;57.80;52.50;;;;;;;23.05;46.95;102031.38;5058505;28;20048;-68
2023/10/06 09:57:35;;;;;;;55.83;50.72;;;;;;;23.03;46.84;102036.03;5009592;28;20135;-68
2023/10/06 10:00:00;;;;;;;49.83;45.38;;;;;;;23.05;46.74;102034.88;5051372;28;20479;-68
2023/10/06 10:02:29;;;;;;;55.03;49.95;;;;;;;22.94;46.81;102018.47;5006412;28;20083;-67
2023/10/06 10:04:59;;;;;;;54.38;49.45;;;;;;;23.08;46.66;102026.56;5050840;28;20056;-66
2023/10/06 10:07:28;;;;;;;50.45;45.95;;;;;;;23.08;46.73;102012.44;5008357;28;20409;-69
2023/10/06 10:09:56;;;;;;;36.00;32.60;;;;;;;23.09;46.53;102006.13;5042638;28;20124;-68
2023/10/06 10:12:30;;;;;;;35.70;32.63;;;;;;;23.07;46.64;102008.94;5056552;28;21832;-69
2023/10/06 10:15:19;;;;;;;39.92;36.35;;;;;;;23.09;46.77;101998.16;5006449;28;20049;-66
2023/10/06 10:17:54;;;;;;;27.77;25.23;;;;;;;23.10;46.81;102013.09;5057636;28;20127;-66
2023/10/06 10:20:25;;;;;;;31.33;28.38;;;;;;;23.10;46.89;101999.81;5011030;28;20037;-67
2023/10/06 10:22:55;;;;;;;29.85;27.33;;;;;;;23.10;46.43;101990.00;5040701;28;20049;-67
2023/10/06 10:25:23;;;;;;;33.05;30.25;;;;;;;23.09;46.81;101996.31;5005240;28;20156;-67
2023/10/06 10:28:19;;;;;;;28.92;26.20;;;;;;;23.12;46.76;102000.47;5044148;28;20052;-69
2023/10/06 10:31:01;;;;;;;22.77;20.83;;;;;;;23.11;46.65;102004.94;5065026;28;20482;-70
2023/10/06 10:33:31;;;;;;;23.45;21.27;;;;;;;23.05;46.72;101997.69;5010607;28;20847;-69
2023/10/06 10:36:16;;;;;;;21.48;19.52;;;;;;;23.10;46.80;101999.81;5051992;28;20079;-68
2023/10/06 10:38:42;;;;;;;19.38;17.60;;;;;;;23.12;46.93;102001.28;5014099;28;20051;-71
2023/10/06 10:41:09;;;;;;;22.35;20.38;;;;;;;23.11;46.70;102001.47;5060937;28;20045;-71
2023/10/06 10:43:40;;;;;;;18.77;16.95;;;;;;;23.13;46.87;102004.78;5013022;28;20076;-69
2023/10/06 10:46:08;;;;;;;24.95;22.80;;;;;;;23.13;46.78;102002.94;5061069;28;20587;-65
2023/10/06 10:48:47;;;;;;;22.35;20.20;;;;;;;23.16;46.89;102020.34;5012478;28;20048;-69
2023/10/06 10:51:14;;;;;;;15.68;14.25;;;;;;;23.14;46.94;102012.56;5044861;28;20050;-70
2023/10/06 10:53:46;;;;;;;19.65;17.90;;;;;;;23.00;47.52;102009.81;5059687;28;20047;-67
2023/10/06 10:56:17;;;;;;;21.80;19.75;;;;;;;23.07;47.31;102006.28;5010020;28;20059;-63
2023/10/06 10:58:43;;;;;;;20.17;18.38;;;;;;;23.11;47.16;101999.63;5042108;28;20131;-63
2023/10/06 11:01:29;;;;;;;22.27;20.13;;;;;;;23.17;46.85;101984.84;5008306;28;20040;-63
2023/10/06 11:04:15;;;;;;;20.55;18.58;;;;;;;23.18;46.97;101987.31;5039458;28;20033;-63
2023/10/06 11:06:45;;;;;;;24.02;21.73;;;;;;;23.09;47.41;101980.38;5001678;28;20163;-64
2023/10/06 11:09:12;;;;;;;23.90;21.73;;;;;;;23.11;47.48;101964.25;5050122;28;20040;-65
2023/10/06 11:11:39;;;;;;;19.73;16.90;;;;;;;23.11;47.76;101964.25;5008148;28;20075;-67
2023/10/06 11:14:05;;;;;;;22.63;20.35;;;;;;;23.09;47.91;101993.66;5051358;28;20120;-65
2023/10/06 11:16:32;;;;;;;26.50;24.15;;;;;;;23.10;47.61;101978.56;5006917;28;20052;-64
2023/10/06 11:19:03;;;;;;;31.27;21.30;;;;;;;23.00;48.14;101954.88;5055566;28;20051;-65
2023/10/06 11:21:30;;;;;;;17.00;15.27;;;;;;;22.90;48.22;101956.91;5008366;28;20047;-66
2023/10/06 11:23:58;;;;;;;16.33;14.75;;;;;;;22.95;48.16;101978.44;5049851;28;20083;-64
2023/10/06 11:26:33;;;;;;;13.55;11.70;;;;;;;22.97;48.14;101952.53;5005049;28;20053;-68
2023/10/06 11:29:00;;;;;;;14.02;11.73;;;;;;;22.96;48.89;101950.06;5051990;28;20048;-66
2023/10/06 11:31:29;;;;;;;14.77;13.27;;;;;;;22.93;48.54;101961.84;5002800;28;20081;-65
2023/10/06 11:33:58;;;;;;;13.00;10.63;;;;;;;22.90;48.53;101947.09;5038192;28;20041;-67
2023/10/06 11:36:24;;;;;;;14.85;11.93;;;;;;;22.94;48.38;101946.75;4996522;28;20154;-65
2023/10/06 11:38:50;;;;;;;14.23;11.63;;;;;;;23.02;48.60;101958.19;5051453;28;20436;-66
2023/10/06 11:41:23;;;;;;;15.00;10.65;;;;;;;23.12;47.89;101947.31;5001343;28;20053;-64
2023/10/06 11:43:55;;;;;;;12.70;10.85;;;;;;;23.20;47.99;101952.59;5047465;28;20064;-63
2023/10/06 11:46:21;;;;;;;10.80;9.32;;;;;;;23.18;47.73;101957.28;5005702;28;20052;-64
2023/10/06 11:48:47;;;;;;;11.77;10.02;;;;;;;23.24;47.56;101958.38;5053105;28;20183;-64
2023/10/06 11:51:15;;;;;;;10.50;7.60;;;;;;;23.26;47.65;101964.34;5001094;28;20044;-64